Time;durP1;ratioP1;P1;durP2;ratioP2;P2;SDS_P1;SDS_P2;PMS_P1;PMS_P2;Temp;Humidity;BMP_temperature;BMP_pressure;BME280_temperature;BME280_humidity;BME280_pressure;Samples;Min_cycle;Max_cycle;Signal;HPM_P1;HPM_P2
2021/01/09 00:00:11;;;;;;;21.60;15.65;;;5.90;63.30;;;;;;5050277;28;20041;-67
2021/01/09 00:02:36;;;;;;;21.55;15.20;;;6.00;63.20;;;;;;5033347;28;20032;-68
2021/01/09 00:05:03;;;;;;;24.63;16.35;;;6.10;63.00;;;;;;5052103;28;20028;-66
2021/01/09 00:07:31;;;;;;;21.48;14.95;;;6.10;62.60;;;;;;5051913;28;20051;-66
2021/01/09 00:09:57;;;;;;;19.67;14.02;;;6.00;62.40;;;;;;5051762;28;20035;-68
2021/01/09 00:12:24;;;;;;;22.67;15.15;;;6.00;62.50;;;;;;5051046;28;20051;-66
2021/01/09 00:14:49;;;;;;;22.35;15.63;;;5.90;62.60;;;;;;5051488;28;20029;-67
2021/01/09 00:17:15;;;;;;;21.63;15.70;;;5.90;62.70;;;;;;5015678;28;20025;-66
2021/01/09 00:19:41;;;;;;;20.88;15.25;;;5.90;62.60;;;;;;5031726;28;20053;-66
2021/01/09 00:22:07;;;;;;;22.02;15.57;;;5.90;62.80;;;;;;5019599;28;20539;-66
2021/01/09 00:24:33;;;;;;;21.10;14.65;;;6.00;63.00;;;;;;5034037;28;20025;-66
2021/01/09 00:26:58;;;;;;;20.45;15.07;;;5.90;62.70;;;;;;5052434;28;20032;-66
2021/01/09 00:29:24;;;;;;;20.38;15.00;;;5.80;63.00;;;;;;5052205;28;20040;-68
2021/01/09 00:31:51;;;;;;;24.20;14.82;;;5.90;62.90;;;;;;5042765;28;20535;-68
2021/01/09 00:34:19;;;;;;;21.45;14.88;;;5.80;63.10;;;;;;5042409;28;20028;-66
2021/01/09 00:36:48;;;;;;;23.13;15.82;;;5.80;63.30;;;;;;5051685;28;20354;-66
2021/01/09 00:39:14;;;;;;;25.00;15.10;;;5.90;62.90;;;;;;5036439;28;20046;-66
2021/01/09 00:41:39;;;;;;;20.77;14.50;;;5.80;62.90;;;;;;5024788;28;20028;-67
2021/01/09 00:44:07;;;;;;;24.70;16.00;;;5.80;63.20;;;;;;5051085;28;20040;-66
2021/01/09 00:46:33;;;;;;;22.00;15.32;;;5.80;63.30;;;;;;5034094;28;20551;-67
2021/01/09 00:48:59;;;;;;;22.35;15.20;;;5.90;63.10;;;;;;5049221;28;20052;-66
2021/01/09 00:51:25;;;;;;;20.67;13.65;;;5.90;63.30;;;;;;5014931;28;20128;-65
2021/01/09 00:53:51;;;;;;;18.95;14.35;;;5.80;63.50;;;;;;5024080;28;20067;-67
2021/01/09 00:56:17;;;;;;;20.42;14.02;;;5.70;63.70;;;;;;5051079;28;21465;-66
2021/01/09 00:58:43;;;;;;;20.35;14.68;;;5.80;63.70;;;;;;5051470;28;20029;-66
2021/01/09 01:01:10;;;;;;;19.85;14.15;;;5.70;64.30;;;;;;5051636;28;20025;-67
2021/01/09 01:03:37;;;;;;;19.98;14.43;;;5.70;64.60;;;;;;5050950;28;20470;-65
2021/01/09 01:06:03;;;;;;;21.17;15.80;;;5.60;65.80;;;;;;5052187;28;20017;-65
2021/01/09 01:08:29;;;;;;;21.65;14.80;;;5.50;66.80;;;;;;5051618;28;20100;-66
2021/01/09 01:10:55;;;;;;;24.15;16.27;;;5.40;67.70;;;;;;5052629;28;20113;-65
2021/01/09 01:13:21;;;;;;;23.10;15.82;;;5.30;68.70;;;;;;5051908;28;20029;-65
2021/01/09 01:15:47;;;;;;;21.77;15.57;;;5.30;69.40;;;;;;5033456;28;20037;-67
2021/01/09 01:18:13;;;;;;;22.85;16.02;;;5.20;70.40;;;;;;5052094;28;20090;-66
2021/01/09 01:20:38;;;;;;;22.17;16.42;;;5.10;71.60;;;;;;5050885;28;20543;-66
2021/01/09 01:23:04;;;;;;;23.05;15.80;;;5.20;71.30;;;;;;5051219;28;20033;-66
2021/01/09 01:25:30;;;;;;;21.02;15.27;;;5.10;71.00;;;;;;5050769;28;20025;-67
2021/01/09 01:27:56;;;;;;;22.73;16.45;;;5.10;70.90;;;;;;5051854;28;20104;-66
2021/01/09 01:30:21;;;;;;;21.92;15.82;;;5.10;71.20;;;;;;5051692;28;20025;-66
2021/01/09 01:32:47;;;;;;;25.05;16.38;;;5.10;71.10;;;;;;5050797;28;20029;-66
2021/01/09 01:35:13;;;;;;;22.92;16.48;;;5.20;71.00;;;;;;5051678;28;20484;-65
2021/01/09 01:37:38;;;;;;;24.27;16.63;;;5.20;70.90;;;;;;5033387;28;20519;-66
2021/01/09 01:40:05;;;;;;;21.55;15.65;;;5.10;70.90;;;;;;5051364;28;20055;-65
2021/01/09 01:42:31;;;;;;;24.83;16.58;;;5.00;71.10;;;;;;5051301;28;20499;-65
2021/01/09 01:44:57;;;;;;;23.23;17.23;;;5.00;71.20;;;;;;5051889;28;20052;-65
2021/01/09 01:47:23;;;;;;;20.75;15.90;;;5.00;71.20;;;;;;5052008;28;20108;-65
2021/01/09 01:49:49;;;;;;;21.77;14.98;;;5.00;70.90;;;;;;5032349;28;20560;-66
2021/01/09 01:52:16;;;;;;;21.90;16.08;;;5.00;70.70;;;;;;5051700;28;20100;-65
2021/01/09 01:54:45;;;;;;;23.40;16.35;;;5.00;70.70;;;;;;5050887;28;20028;-66
2021/01/09 01:57:13;;;;;;;22.50;16.27;;;5.10;70.30;;;;;;5034169;28;20057;-67
2021/01/09 01:59:40;;;;;;;21.98;16.42;;;5.10;70.30;;;;;;5050931;28;20055;-65
2021/01/09 02:02:12;;;;;;;24.92;16.15;;;5.10;70.50;;;;;;5051467;28;20037;-66
2021/01/09 02:04:38;;;;;;;23.15;16.38;;;5.10;70.20;;;;;;5050728;28;20055;-65
2021/01/09 02:07:13;;;;;;;21.30;15.60;;;5.20;69.80;;;;;;5036178;28;20029;-65
2021/01/09 02:09:42;;;;;;;21.85;15.43;;;5.30;69.60;;;;;;5054185;28;20070;-65
2021/01/09 02:12:15;;;;;;;24.25;15.93;;;5.30;69.00;;;;;;5053920;28;20389;-67
2021/01/09 02:14:48;;;;;;;23.25;16.52;;;5.30;68.50;;;;;;5053916;28;20403;-67
2021/01/09 02:17:16;;;;;;;21.63;15.93;;;5.30;68.50;;;;;;5054190;28;20631;-66
2021/01/09 02:19:43;;;;;;;21.75;15.18;;;5.30;68.70;;;;;;5053353;28;20060;-66
2021/01/09 02:22:14;;;;;;;21.02;15.30;;;5.30;68.30;;;;;;5054461;28;20029;-66
2021/01/09 02:24:41;;;;;;;23.17;16.67;;;5.30;68.20;;;;;;5053689;28;20517;-67
2021/01/09 02:27:07;;;;;;;22.58;16.02;;;5.30;68.30;;;;;;5053821;28;20400;-66
2021/01/09 02:29:36;;;;;;;20.50;14.68;;;5.30;68.10;;;;;;5053943;28;20112;-66
2021/01/09 02:32:09;;;;;;;23.00;16.15;;;5.30;67.90;;;;;;5054189;28;20474;-66
2021/01/09 02:34:44;;;;;;;24.50;15.73;;;5.30;68.30;;;;;;5053417;28;20029;-67
2021/01/09 02:37:10;;;;;;;21.83;15.35;;;5.30;67.80;;;;;;5053601;28;20040;-66
2021/01/09 02:39:37;;;;;;;21.58;15.68;;;5.30;67.80;;;;;;5035079;28;20040;-66
2021/01/09 02:42:03;;;;;;;23.73;16.35;;;5.40;67.50;;;;;;5054182;28;20056;-66
2021/01/09 02:44:30;;;;;;;21.65;16.02;;;5.40;67.50;;;;;;5053271;28;20448;-66
2021/01/09 02:46:56;;;;;;;21.35;15.05;;;5.40;67.10;;;;;;5053090;28;20056;-65
2021/01/09 02:49:21;;;;;;;21.00;15.40;;;5.40;67.00;;;;;;5053557;28;20032;-66
2021/01/09 02:51:47;;;;;;;22.33;16.48;;;5.40;67.20;;;;;;5053142;28;20057;-66
2021/01/09 02:54:13;;;;;;;22.40;16.20;;;5.40;67.10;;;;;;5017875;28;20075;-66
2021/01/09 02:56:38;;;;;;;20.08;15.20;;;5.50;66.80;;;;;;5052928;28;20385;-66
2021/01/09 02:59:04;;;;;;;21.90;14.95;;;5.50;66.80;;;;;;5054011;28;20033;-66
2021/01/09 03:01:30;;;;;;;21.38;15.77;;;5.50;66.50;;;;;;5053458;28;20029;-66
2021/01/09 03:03:59;;;;;;;23.88;16.67;;;5.50;66.50;;;;;;5034268;28;20477;-67
2021/01/09 03:06:25;;;;;;;19.83;15.48;;;5.50;66.60;;;;;;5035429;28;20032;-67
2021/01/09 03:08:52;;;;;;;23.45;14.98;;;5.50;66.60;;;;;;5035403;28;20393;-67
2021/01/09 03:11:18;;;;;;;21.52;15.45;;;5.50;66.40;;;;;;5053314;28;20025;-66
2021/01/09 03:13:45;;;;;;;21.05;15.85;;;5.50;66.60;;;;;;5053372;28;20535;-66
2021/01/09 03:16:10;;;;;;;22.38;16.27;;;5.50;66.60;;;;;;5035550;28;21278;-66
2021/01/09 03:18:36;;;;;;;22.75;16.67;;;5.50;66.60;;;;;;5052675;28;20040;-66
2021/01/09 03:21:02;;;;;;;20.65;15.05;;;5.50;66.50;;;;;;5053026;28;20025;-66
2021/01/09 03:23:28;;;;;;;20.83;15.48;;;5.50;66.20;;;;;;5053641;28;20100;-66
2021/01/09 03:25:54;;;;;;;20.70;15.05;;;5.50;66.00;;;;;;5052118;28;20335;-66
2021/01/09 03:28:19;;;;;;;20.40;15.02;;;5.40;66.20;;;;;;5052902;28;20079;-67
2021/01/09 03:30:45;;;;;;;21.10;14.90;;;5.40;66.30;;;;;;5034287;28;20037;-65
2021/01/09 03:33:11;;;;;;;20.23;15.38;;;5.40;66.00;;;;;;5052930;28;20021;-66
2021/01/09 03:35:36;;;;;;;19.92;15.48;;;5.40;66.20;;;;;;5051983;28;20109;-65
2021/01/09 03:38:02;;;;;;;21.67;16.00;;;5.20;66.80;;;;;;5052794;28;20025;-67
2021/01/09 03:40:28;;;;;;;22.40;16.13;;;5.20;67.00;;;;;;5051633;28;20486;-65
2021/01/09 03:42:53;;;;;;;21.17;16.10;;;5.20;67.10;;;;;;5051519;28;20033;-65
2021/01/09 03:45:19;;;;;;;20.05;15.30;;;5.20;67.10;;;;;;5034503;28;20462;-65
2021/01/09 03:47:45;;;;;;;21.13;16.23;;;5.20;67.00;;;;;;5051542;28;20386;-65
2021/01/09 03:50:11;;;;;;;21.77;16.05;;;5.20;66.80;;;;;;5053222;28;20033;-66
2021/01/09 03:52:37;;;;;;;21.95;15.52;;;5.20;66.70;;;;;;5052351;28;20112;-66
2021/01/09 03:55:03;;;;;;;21.30;15.02;;;5.20;66.60;;;;;;5052370;28;20025;-65
2021/01/09 03:57:29;;;;;;;20.90;15.48;;;5.10;66.60;;;;;;5051668;28;20032;-66
2021/01/09 03:59:54;;;;;;;18.88;14.98;;;5.20;66.60;;;;;;5050432;28;20120;-65
2021/01/09 04:02:20;;;;;;;20.23;15.02;;;5.20;66.70;;;;;;5051560;28;20487;-67
2021/01/09 04:04:46;;;;;;;20.80;15.63;;;5.20;66.70;;;;;;5051127;28;20028;-67
2021/01/09 04:07:12;;;;;;;19.30;13.88;;;5.20;66.70;;;;;;5052441;28;20025;-67
2021/01/09 04:09:38;;;;;;;20.30;14.63;;;5.20;66.50;;;;;;5051689;28;20429;-67
2021/01/09 04:12:04;;;;;;;18.85;14.27;;;5.10;66.60;;;;;;5051402;28;20473;-67
2021/01/09 04:14:29;;;;;;;20.23;16.25;;;5.10;67.20;;;;;;5051676;28;20037;-67
2021/01/09 04:16:55;;;;;;;18.58;14.50;;;5.20;66.70;;;;;;5034320;28;20033;-67
2021/01/09 04:19:21;;;;;;;22.83;16.15;;;5.20;66.30;;;;;;5033700;28;20053;-67
2021/01/09 04:21:51;;;;;;;20.45;14.95;;;5.10;66.60;;;;;;5052249;28;20453;-67
2021/01/09 04:24:21;;;;;;;18.85;14.15;;;5.10;66.60;;;;;;5034192;28;20434;-67
2021/01/09 04:26:54;;;;;;;20.65;14.68;;;5.10;66.50;;;;;;5050117;28;20029;-67
2021/01/09 04:29:20;;;;;;;18.23;14.43;;;5.10;66.60;;;;;;5051220;28;20067;-66
2021/01/09 04:31:46;;;;;;;19.25;14.18;;;5.00;66.50;;;;;;5051023;28;20100;-65
2021/01/09 04:34:12;;;;;;;18.23;14.02;;;4.90;67.20;;;;;;5051641;28;20433;-66
2021/01/09 04:36:38;;;;;;;19.52;14.30;;;4.90;67.20;;;;;;5050470;28;20033;-65
2021/01/09 04:39:04;;;;;;;21.30;15.65;;;4.90;67.50;;;;;;5051898;28;20453;-65
2021/01/09 04:41:33;;;;;;;20.55;15.52;;;4.80;67.70;;;;;;5033246;28;20036;-65
2021/01/09 04:43:59;;;;;;;18.58;14.18;;;4.90;67.60;;;;;;5051524;28;20603;-66
2021/01/09 04:46:26;;;;;;;19.48;14.80;;;4.80;67.90;;;;;;5051210;28;20029;-66
2021/01/09 04:48:52;;;;;;;20.52;14.27;;;4.70;68.10;;;;;;5032035;28;20086;-65
2021/01/09 04:51:37;;;;;;;19.42;14.70;;;4.70;68.40;;;;;;5029720;28;20139;-67
2021/01/09 04:54:03;;;;;;;20.15;16.13;;;4.70;68.70;;;;;;5050103;28;20071;-67
2021/01/09 04:56:29;;;;;;;19.13;15.05;;;4.70;68.70;;;;;;5033623;28;20393;-67
2021/01/09 04:58:55;;;;;;;21.30;14.95;;;4.70;68.60;;;;;;5032954;28;20116;-66
2021/01/09 05:01:21;;;;;;;20.15;15.77;;;4.80;68.80;;;;;;5051219;28;20052;-66
2021/01/09 05:03:48;;;;;;;19.83;16.00;;;4.80;68.80;;;;;;5049718;28;20489;-67
2021/01/09 05:06:21;;;;;;;19.52;15.43;;;4.80;68.50;;;;;;5046258;28;20086;-66
2021/01/09 05:08:47;;;;;;;21.55;16.58;;;4.90;68.60;;;;;;5050415;28;20204;-67
2021/01/09 05:11:16;;;;;;;20.80;15.50;;;4.90;68.80;;;;;;5033064;28;20446;-66
2021/01/09 05:13:43;;;;;;;21.10;15.98;;;4.90;69.00;;;;;;5032191;28;20115;-66
2021/01/09 05:16:11;;;;;;;22.88;17.38;;;4.90;70.50;;;;;;5032047;28;20064;-66
2021/01/09 05:18:38;;;;;;;21.80;16.90;;;4.80;72.50;;;;;;5033430;28;20029;-66
2021/01/09 05:21:10;;;;;;;22.52;16.67;;;4.80;72.80;;;;;;5050902;28;20094;-65
2021/01/09 05:23:51;;;;;;;20.33;16.88;;;4.70;74.00;;;;;;5054483;28;20132;-66
2021/01/09 05:26:18;;;;;;;22.70;16.73;;;4.60;74.30;;;;;;5052168;28;20085;-66
2021/01/09 05:28:49;;;;;;;21.83;16.13;;;4.60;74.90;;;;;;5051287;28;20103;-66
2021/01/09 05:31:16;;;;;;;23.05;17.05;;;4.60;74.30;;;;;;5032653;28;20033;-66
2021/01/09 05:33:42;;;;;;;21.42;15.90;;;4.50;74.50;;;;;;5050012;28;20033;-65
2021/01/09 05:36:09;;;;;;;19.63;15.23;;;4.60;73.80;;;;;;5051332;28;20121;-65
2021/01/09 05:38:39;;;;;;;20.85;15.90;;;4.50;73.60;;;;;;5050431;28;20036;-66
2021/01/09 05:41:07;;;;;;;20.42;16.10;;;4.60;73.10;;;;;;5052174;28;20045;-66
2021/01/09 05:43:33;;;;;;;20.67;16.00;;;4.50;73.50;;;;;;5036509;28;20021;-66
2021/01/09 05:46:00;;;;;;;21.40;16.40;;;4.60;73.60;;;;;;5054360;28;20036;-66
2021/01/09 05:48:27;;;;;;;22.92;17.08;;;4.60;73.80;;;;;;5053650;28;20032;-67
2021/01/09 05:50:54;;;;;;;26.35;19.92;;;4.60;74.80;;;;;;5053521;28;20374;-66
2021/01/09 05:53:44;;;;;;;24.55;18.70;;;4.60;75.70;;;;;;5054782;28;20124;-65
2021/01/09 05:56:11;;;;;;;27.20;20.05;;;4.60;76.50;;;;;;5054172;28;20028;-67
2021/01/09 05:58:37;;;;;;;26.23;19.05;;;4.60;77.50;;;;;;5051429;28;20040;-66
2021/01/09 06:01:10;;;;;;;25.05;18.45;;;4.70;76.90;;;;;;5040980;28;20123;-65
2021/01/09 06:03:42;;;;;;;25.00;18.85;;;4.70;75.50;;;;;;5042322;28;20037;-66
2021/01/09 06:06:23;;;;;;;23.60;18.45;;;4.80;75.70;;;;;;5054268;28;20055;-67
2021/01/09 06:08:54;;;;;;;23.83;18.00;;;4.90;74.60;;;;;;5053495;28;20119;-68
2021/01/09 06:11:44;;;;;;;24.65;18.65;;;4.90;73.90;;;;;;5042092;28;20124;-65
2021/01/09 06:14:13;;;;;;;24.75;18.23;;;4.90;73.30;;;;;;5040174;28;20710;-65
2021/01/09 06:16:41;;;;;;;24.42;18.33;;;4.90;73.10;;;;;;5041513;28;20029;-66
2021/01/09 06:19:07;;;;;;;25.65;18.20;;;5.00;73.00;;;;;;5025501;28;20045;-66
2021/01/09 06:21:35;;;;;;;22.33;17.20;;;5.00;71.80;;;;;;5042953;28;20476;-66
2021/01/09 06:24:03;;;;;;;20.85;16.42;;;5.00;70.70;;;;;;5049066;28;20497;-66
2021/01/09 06:26:30;;;;;;;22.05;16.98;;;5.00;70.60;;;;;;5052438;28;20051;-65
2021/01/09 06:28:58;;;;;;;20.95;15.70;;;4.90;70.60;;;;;;5042472;28;20466;-66
2021/01/09 06:31:26;;;;;;;21.50;16.50;;;4.90;70.10;;;;;;5048753;28;20162;-66
2021/01/09 06:33:54;;;;;;;20.77;15.48;;;4.80;71.00;;;;;;5052297;28;20107;-66
2021/01/09 06:36:22;;;;;;;21.42;16.35;;;4.80;69.90;;;;;;5048303;28;20030;-65
2021/01/09 06:38:51;;;;;;;21.33;16.42;;;4.70;70.00;;;;;;5039202;28;20095;-67
2021/01/09 06:41:19;;;;;;;21.20;16.75;;;4.70;70.00;;;;;;5034614;28;20115;-65
2021/01/09 06:43:47;;;;;;;21.33;16.67;;;4.70;69.90;;;;;;5044191;28;20036;-66
2021/01/09 06:46:28;;;;;;;20.63;15.77;;;4.80;69.60;;;;;;5047872;28;20417;-66
2021/01/09 06:48:54;;;;;;;21.58;16.73;;;4.70;69.70;;;;;;5047792;28;20104;-66
2021/01/09 06:51:35;;;;;;;21.48;16.20;;;4.70;69.50;;;;;;5051810;28;20086;-67
2021/01/09 06:54:15;;;;;;;23.38;16.50;;;4.80;69.30;;;;;;5052227;28;20296;-67
2021/01/09 06:57:07;;;;;;;21.75;16.75;;;4.70;69.40;;;;;;5053048;28;20104;-66
2021/01/09 06:59:34;;;;;;;21.35;16.38;;;4.80;69.40;;;;;;5052528;28;20029;-65
2021/01/09 07:02:09;;;;;;;22.08;16.83;;;4.80;69.10;;;;;;5052294;28;20037;-66
2021/01/09 07:04:54;;;;;;;24.45;16.83;;;4.80;68.70;;;;;;5053489;28;20381;-66
2021/01/09 07:07:32;;;;;;;20.23;15.93;;;4.80;68.70;;;;;;5053232;28;20025;-67
2021/01/09 07:10:18;;;;;;;20.27;15.75;;;4.80;68.30;;;;;;5033955;28;20048;-67
2021/01/09 07:12:53;;;;;;;20.73;14.90;;;4.80;68.30;;;;;;5037882;28;20104;-66
2021/01/09 07:15:20;;;;;;;20.92;14.77;;;4.90;68.20;;;;;;5046019;28;20034;-66
2021/01/09 07:18:06;;;;;;;18.83;14.63;;;4.90;68.00;;;;;;5050315;28;20057;-67
2021/01/09 07:20:41;;;;;;;19.05;14.55;;;5.00;68.00;;;;;;5039253;28;20046;-66
2021/01/09 07:23:13;;;;;;;19.73;15.15;;;5.00;67.40;;;;;;5035167;28;20029;-68
2021/01/09 07:25:46;;;;;;;16.13;13.15;;;5.00;67.30;;;;;;5051872;28;20040;-66
2021/01/09 07:28:17;;;;;;;18.70;14.73;;;5.00;67.20;;;;;;5048732;28;20055;-66
2021/01/09 07:30:43;;;;;;;19.75;14.70;;;4.90;67.60;;;;;;5052304;28;20083;-66
2021/01/09 07:33:14;;;;;;;23.73;16.60;;;4.90;67.60;;;;;;5042412;28;20504;-66
2021/01/09 07:35:44;;;;;;;20.33;14.77;;;5.00;67.70;;;;;;5025359;28;20068;-66
2021/01/09 07:38:11;;;;;;;18.98;14.10;;;5.00;67.20;;;;;;5035068;28;20470;-65
2021/01/09 07:40:46;;;;;;;18.88;14.70;;;5.10;66.90;;;;;;5046876;28;20036;-67
2021/01/09 07:43:44;;;;;;;23.17;15.02;;;5.30;66.60;;;;;;5020907;28;20041;-66
2021/01/09 07:46:23;;;;;;;19.67;15.00;;;5.50;65.90;;;;;;5015383;28;20033;-67
2021/01/09 07:48:50;;;;;;;22.98;15.15;;;5.70;65.30;;;;;;5045838;28;20120;-67
2021/01/09 07:51:17;;;;;;;19.95;16.35;;;5.80;64.70;;;;;;5044614;28;20444;-67
2021/01/09 07:53:47;;;;;;;23.50;14.80;;;5.90;64.50;;;;;;5039350;28;20036;-67
2021/01/09 07:56:38;;;;;;;21.08;14.52;;;5.90;63.60;;;;;;5045852;28;20021;-67
2021/01/09 07:59:07;;;;;;;22.85;16.33;;;5.90;64.00;;;;;;5034065;28;20033;-67
2021/01/09 08:01:42;;;;;;;16.90;13.68;;;6.10;63.90;;;;;;5034233;28;20032;-67
2021/01/09 08:04:10;;;;;;;19.48;15.00;;;6.10;63.00;;;;;;5050856;28;20048;-66
2021/01/09 08:06:39;;;;;;;17.85;14.45;;;6.20;62.90;;;;;;5050444;28;20033;-66
2021/01/09 08:09:06;;;;;;;19.92;15.35;;;6.30;62.80;;;;;;5051291;28;20075;-67
2021/01/09 08:11:32;;;;;;;27.15;18.60;;;6.30;62.30;;;;;;5040715;28;20018;-67
2021/01/09 08:14:01;;;;;;;17.75;14.02;;;6.40;61.50;;;;;;5042476;28;20386;-67
2021/01/09 08:16:27;;;;;;;19.08;14.07;;;6.40;61.60;;;;;;5046648;28;20044;-67
2021/01/09 08:18:52;;;;;;;17.27;14.05;;;6.40;61.20;;;;;;5041653;28;20068;-68
2021/01/09 08:21:23;;;;;;;17.73;14.32;;;6.40;61.60;;;;;;5036878;28;20025;-67
2021/01/09 08:23:54;;;;;;;16.83;13.57;;;6.40;61.60;;;;;;5040412;28;20076;-67
2021/01/09 08:26:22;;;;;;;21.85;14.63;;;6.40;61.90;;;;;;5050441;28;20036;-67
2021/01/09 08:28:49;;;;;;;21.17;16.17;;;6.50;61.90;;;;;;5051075;28;20025;-67
2021/01/09 08:31:16;;;;;;;18.50;14.98;;;6.60;61.90;;;;;;5023046;28;20103;-67
2021/01/09 08:33:47;;;;;;;20.67;15.88;;;6.70;61.50;;;;;;5019144;28;20033;-67
2021/01/09 08:36:15;;;;;;;19.67;15.60;;;6.70;61.90;;;;;;5001134;28;20243;-68
2021/01/09 08:38:41;;;;;;;18.85;15.05;;;6.70;62.10;;;;;;5046831;28;20025;-67
2021/01/09 08:41:06;;;;;;;17.63;14.85;;;6.50;62.60;;;;;;5038835;28;20098;-65
2021/01/09 08:43:32;;;;;;;19.63;15.23;;;6.50;62.60;;;;;;5036372;28;20469;-68
2021/01/09 08:45:58;;;;;;;19.67;16.08;;;6.60;62.80;;;;;;5031522;28;20546;-67
2021/01/09 08:48:27;;;;;;;19.33;15.43;;;6.60;62.80;;;;;;5040378;28;20080;-66
2021/01/09 08:51:03;;;;;;;20.90;16.58;;;6.70;62.60;;;;;;5035569;28;20036;-67
2021/01/09 08:53:36;;;;;;;19.23;15.98;;;6.80;62.30;;;;;;5032647;28;20045;-67
2021/01/09 08:56:04;;;;;;;21.15;15.80;;;6.80;61.70;;;;;;5047009;28;20167;-67
2021/01/09 08:58:31;;;;;;;19.35;15.77;;;6.70;61.80;;;;;;5051781;28;20112;-66
2021/01/09 09:01:00;;;;;;;19.25;15.57;;;6.60;61.90;;;;;;5018220;28;20112;-66
2021/01/09 09:03:27;;;;;;;20.00;15.80;;;6.50;62.10;;;;;;5041325;28;20067;-66
2021/01/09 09:05:54;;;;;;;19.48;15.25;;;6.60;62.10;;;;;;5052363;28;20029;-67
2021/01/09 09:08:23;;;;;;;18.75;14.45;;;6.60;62.00;;;;;;5034637;28;20029;-68
2021/01/09 09:10:50;;;;;;;17.00;14.07;;;6.50;61.90;;;;;;5051277;28;20119;-68
2021/01/09 09:13:24;;;;;;;19.05;14.38;;;6.60;62.40;;;;;;5031028;28;20127;-67
2021/01/09 09:15:51;;;;;;;17.20;13.85;;;6.70;62.60;;;;;;5051774;28;20021;-67
2021/01/09 09:18:17;;;;;;;20.55;14.88;;;6.60;62.40;;;;;;5033605;28;20037;-68
2021/01/09 09:20:48;;;;;;;18.95;15.20;;;6.60;62.20;;;;;;5050686;28;20134;-66
2021/01/09 09:23:25;;;;;;;18.20;14.27;;;6.50;63.00;;;;;;5051732;28;20040;-68
2021/01/09 09:26:05;;;;;;;18.08;14.32;;;6.40;63.30;;;;;;5033850;28;20091;-64
2021/01/09 09:28:42;;;;;;;15.90;13.23;;;6.60;63.30;;;;;;5040277;28;20034;-68
2021/01/09 09:31:26;;;;;;;17.48;14.77;;;6.70;62.90;;;;;;5041841;28;20040;-65
2021/01/09 09:34:10;;;;;;;15.95;13.13;;;6.70;62.80;;;;;;5033474;28;20032;-66
2021/01/09 09:36:49;;;;;;;16.35;13.13;;;6.80;62.30;;;;;;5040054;28;20478;-66
2021/01/09 09:39:22;;;;;;;17.25;14.27;;;6.70;62.00;;;;;;5014492;28;20069;-67
2021/01/09 09:42:01;;;;;;;;;;;6.60;62.40;;;;;;5051494;28;20025;-66
2021/01/09 09:44:38;;;;;;;16.38;12.88;;;6.70;61.80;;;;;;5033597;28;19960;-66
2021/01/09 09:47:07;;;;;;;14.00;11.98;;;6.80;61.10;;;;;;5047212;28;20025;-66
2021/01/09 09:49:34;;;;;;;15.63;12.57;;;6.80;60.80;;;;;;5039488;28;20037;-66
2021/01/09 09:52:01;;;;;;;16.67;12.60;;;6.90;60.40;;;;;;5031059;28;20030;-65
2021/01/09 09:54:31;;;;;;;14.50;11.82;;;7.10;59.90;;;;;;5042598;28;20021;-66
2021/01/09 09:56:57;;;;;;;15.88;12.60;;;7.10;59.40;;;;;;5050774;28;20497;-66
2021/01/09 09:59:30;;;;;;;15.85;11.93;;;7.10;59.50;;;;;;5029696;28;20382;-66
2021/01/09 10:02:00;;;;;;;15.37;12.70;;;7.20;58.80;;;;;;5049884;28;20033;-67
2021/01/09 10:04:27;;;;;;;14.55;11.63;;;7.10;58.80;;;;;;5038803;28;20267;-67
2021/01/09 10:06:53;;;;;;;16.35;12.95;;;7.00;58.80;;;;;;5052946;28;20025;-65
2021/01/09 10:09:21;;;;;;;14.73;12.07;;;6.90;59.30;;;;;;5058656;28;20042;-65
2021/01/09 10:11:49;;;;;;;16.42;11.60;;;6.90;59.10;;;;;;5051185;28;20457;-66
2021/01/09 10:14:15;;;;;;;16.63;13.38;;;6.90;59.00;;;;;;5050239;28;20026;-67
2021/01/09 10:16:41;;;;;;;17.40;12.18;;;7.00;59.20;;;;;;5051040;28;20035;-67
2021/01/09 10:19:09;;;;;;;15.23;12.45;;;7.00;58.80;;;;;;5050089;28;20044;-67
2021/01/09 10:21:36;;;;;;;15.10;12.88;;;6.90;59.00;;;;;;5050936;28;20079;-66
2021/01/09 10:24:02;;;;;;;16.27;12.73;;;6.90;59.00;;;;;;5032440;28;20021;-67
2021/01/09 10:26:30;;;;;;;15.30;12.32;;;6.90;59.10;;;;;;5033539;28;20047;-66
2021/01/09 10:28:57;;;;;;;18.08;13.82;;;6.90;59.30;;;;;;5036694;28;20469;-66
2021/01/09 10:31:37;;;;;;;18.45;13.45;;;6.90;59.20;;;;;;5053864;28;20017;-66
2021/01/09 10:34:04;;;;;;;16.90;13.05;;;6.80;58.80;;;;;;5052087;28;20021;-67
2021/01/09 10:36:33;;;;;;;17.40;12.63;;;6.80;58.90;;;;;;5053865;28;20572;-66
2021/01/09 10:38:59;;;;;;;20.75;14.52;;;6.80;59.10;;;;;;5052566;28;20096;-66
2021/01/09 10:41:25;;;;;;;16.75;13.32;;;6.80;59.20;;;;;;5054126;28;20029;-66
2021/01/09 10:43:52;;;;;;;16.83;14.00;;;6.90;58.80;;;;;;5053921;28;20053;-65
2021/01/09 10:46:28;;;;;;;18.02;13.75;;;7.00;58.60;;;;;;5048437;28;20037;-66
2021/01/09 10:48:55;;;;;;;18.85;13.50;;;6.90;58.70;;;;;;5054215;28;20095;-67
2021/01/09 10:51:22;;;;;;;16.85;13.43;;;7.00;58.40;;;;;;5053327;28;20504;-67
2021/01/09 10:53:48;;;;;;;17.25;13.65;;;7.00;58.30;;;;;;5052217;28;20082;-66
2021/01/09 10:56:14;;;;;;;16.55;13.13;;;7.10;58.20;;;;;;5048415;28;20078;-66
2021/01/09 10:58:40;;;;;;;17.05;13.50;;;7.10;58.00;;;;;;5050915;28;20469;-67
2021/01/09 11:01:07;;;;;;;17.95;14.32;;;7.00;58.20;;;;;;5044887;28;20156;-67
2021/01/09 11:03:33;;;;;;;17.40;13.60;;;7.10;58.20;;;;;;5031412;28;20044;-68
2021/01/09 11:06:00;;;;;;;16.45;13.63;;;7.20;57.60;;;;;;5050373;28;20036;-67
2021/01/09 11:08:26;;;;;;;17.48;13.80;;;7.10;57.50;;;;;;5031844;28;20021;-67
2021/01/09 11:10:53;;;;;;;19.05;13.90;;;7.10;57.60;;;;;;5032521;28;20033;-66
2021/01/09 11:13:19;;;;;;;17.77;13.27;;;7.10;57.70;;;;;;5032479;28;20037;-66
2021/01/09 11:15:46;;;;;;;16.65;13.23;;;7.10;57.60;;;;;;5051794;28;20432;-66
2021/01/09 11:18:12;;;;;;;17.50;13.23;;;7.00;57.60;;;;;;5051024;28;20021;-65
2021/01/09 11:20:38;;;;;;;16.13;12.93;;;7.00;57.40;;;;;;5051192;28;20106;-66
2021/01/09 11:23:04;;;;;;;19.10;13.13;;;7.10;57.00;;;;;;5057049;28;20028;-67
2021/01/09 11:25:30;;;;;;;16.15;12.88;;;7.40;56.80;;;;;;5033069;28;20028;-65
2021/01/09 11:27:55;;;;;;;14.98;11.95;;;7.60;55.50;;;;;;5049534;28;20128;-69
2021/01/09 11:30:21;;;;;;;16.40;13.25;;;7.70;54.80;;;;;;5029976;28;20033;-66
2021/01/09 11:32:47;;;;;;;16.85;12.75;;;7.80;54.60;;;;;;5048800;28;20021;-67
2021/01/09 11:35:12;;;;;;;15.45;12.05;;;8.00;53.90;;;;;;5049076;28;20025;-68
2021/01/09 11:37:38;;;;;;;16.77;13.30;;;8.20;53.40;;;;;;5050509;28;20434;-67
2021/01/09 11:40:04;;;;;;;14.85;11.98;;;8.30;53.00;;;;;;5048524;28;20057;-66
2021/01/09 11:42:30;;;;;;;14.23;12.10;;;8.20;52.20;;;;;;5049156;28;20033;-69
2021/01/09 11:44:56;;;;;;;17.70;12.63;;;8.20;52.80;;;;;;5049880;28;20468;-67
2021/01/09 11:47:22;;;;;;;18.50;13.80;;;8.20;52.70;;;;;;5033220;28;20366;-66
2021/01/09 11:49:48;;;;;;;16.38;13.50;;;8.40;52.80;;;;;;5052204;28;20037;-67
2021/01/09 11:52:14;;;;;;;15.73;11.98;;;8.50;52.30;;;;;;5049801;28;20028;-68
2021/01/09 11:54:39;;;;;;;13.88;11.27;;;8.50;51.30;;;;;;5050727;28;20025;-67
2021/01/09 11:57:05;;;;;;;15.07;11.57;;;8.50;51.40;;;;;;5047857;28;20105;-67
2021/01/09 11:59:31;;;;;;;16.25;12.05;;;8.50;51.10;;;;;;5049659;28;20037;-67
2021/01/09 12:01:57;;;;;;;15.75;11.35;;;8.60;51.10;;;;;;5048081;28;20448;-66
2021/01/09 12:04:23;;;;;;;13.45;10.82;;;8.60;50.40;;;;;;5050662;28;20025;-68
2021/01/09 12:06:49;;;;;;;13.65;10.68;;;8.50;50.10;;;;;;5051649;28;20330;-67
2021/01/09 12:09:15;;;;;;;12.65;10.65;;;8.30;50.80;;;;;;5032746;28;20470;-67
2021/01/09 12:11:41;;;;;;;13.77;10.90;;;8.30;51.40;;;;;;5047902;28;20021;-65
2021/01/09 12:14:07;;;;;;;12.98;10.20;;;8.30;51.00;;;;;;5046630;28;20033;-67
2021/01/09 12:16:34;;;;;;;13.13;10.40;;;8.20;51.40;;;;;;5047589;28;20111;-70
2021/01/09 12:19:00;;;;;;;14.02;11.15;;;8.20;51.40;;;;;;5049612;28;20041;-70
2021/01/09 12:21:30;;;;;;;14.05;11.60;;;8.30;51.70;;;;;;5032027;28;20032;-68
2021/01/09 12:23:59;;;;;;;13.70;11.32;;;8.40;51.10;;;;;;5048744;28;20024;-75
2021/01/09 12:26:25;;;;;;;13.95;11.02;;;8.40;51.50;;;;;;5047629;28;20025;-77
2021/01/09 12:28:51;;;;;;;14.85;11.20;;;8.40;51.30;;;;;;5032487;28;20028;-76
2021/01/09 12:31:17;;;;;;;12.57;10.48;;;8.40;51.40;;;;;;5050146;28;20036;-75
2021/01/09 12:33:43;;;;;;;13.00;11.20;;;8.50;51.40;;;;;;5050770;28;20021;-76
2021/01/09 12:36:15;;;;;;;13.73;10.57;;;8.60;51.40;;;;;;5032360;28;20027;-73
2021/01/09 12:38:40;;;;;;;15.13;11.43;;;8.70;50.90;;;;;;5030229;28;20552;-75
2021/01/09 12:41:06;;;;;;;13.55;10.30;;;8.50;50.80;;;;;;5049874;28;20474;-72
2021/01/09 12:43:32;;;;;;;13.02;10.15;;;8.50;50.70;;;;;;5030980;28;20037;-72